Big Bear Station Historical Data
Daily Summary for April 11, 2019 Units:  English    Metric   Both
Next Day »
Daily Weekly Monthly Yearly Custom
  High: Low: Average:
Temperature: 53.4 °F 27.3 °F 38.8 °F
Dew Point: 32.1 °F 13.2 °F 22 °F
Humidity: 79% 28% 53%
Wind Speed: 7.8mph 0.0mph 1.8mph
Wind Gust: -999.0mph - -
Wind- - WSW
Pressure: 23.52 in 23.26 in -
Precipitation: 0.00 in    
Historical Graphs
 
 
Tabular Data for April 11, 2019
Time Temperature Dew Point Pressure Wind Wind Speed Wind Gust Humidity Rainfall Rate (Hourly)
00:03 36.3 °F 21.7 °F 23.52 in Calm   -999.0 mph 55% 0.00 in
00:19 34.3 °F 20.2 °F 23.52 in Calm   -999.0 mph 56% 0.00 in
00:34 33.8 °F 21.0 °F 23.51 in Calm   -999.0 mph 59% 0.00 in
00:50 33.8 °F 19.3 °F 23.51 in SSW 2.2 mph -999.0 mph 55% 0.00 in
01:05 33.4 °F 16.7 °F 23.51 in Calm   -999.0 mph 50% 0.00 in
01:20 34.2 °F 15.6 °F 23.51 in Calm   -999.0 mph 46% 0.00 in
01:35 34.3 °F 14.6 °F 23.51 in East 2.2 mph -999.0 mph 44% 0.00 in
01:51 35.4 °F 14.0 °F 23.51 in Calm   -999.0 mph 41% 0.00 in
02:06 34.7 °F 13.4 °F 23.50 in WSW 2.7 mph -999.0 mph 41% 0.00 in
02:22 34.2 °F 14.0 °F 23.50 in Calm   -999.0 mph 43% 0.00 in
02:37 33.8 °F 14.2 °F 23.50 in South 2.7 mph -999.0 mph 44% 0.00 in
02:52 33.3 °F 14.7 °F 23.50 in South 2.2 mph -999.0 mph 46% 0.00 in
03:07 32.5 °F 14.0 °F 23.50 in South 3.7 mph -999.0 mph 46% 0.00 in
03:23 32.0 °F 14.0 °F 23.50 in Calm   -999.0 mph 47% 0.00 in
03:38 31.6 °F 13.2 °F 23.50 in Calm   -999.0 mph 46% 0.00 in
03:53 31.1 °F 14.2 °F 23.50 in Calm   -999.0 mph 49% 0.00 in
04:08 30.9 °F 14.9 °F 23.49 in Calm   -999.0 mph 51% 0.00 in
04:23 30.9 °F 14.0 °F 23.49 in Calm   -999.0 mph 49% 0.00 in
04:39 30.4 °F 14.0 °F 23.50 in Calm   -999.0 mph 50% 0.00 in
04:54 30.9 °F 14.0 °F 23.50 in Calm   -999.0 mph 49% 0.00 in
05:09 29.8 °F 15.2 °F 23.50 in Calm   -999.0 mph 54% 0.00 in
05:24 29.1 °F 16.5 °F 23.50 in Calm   -999.0 mph 59% 0.00 in
05:39 28.2 °F 15.3 °F 23.51 in Calm   -999.0 mph 58% 0.00 in
05:55 28.0 °F 17.4 °F 23.51 in Calm   -999.0 mph 64% 0.00 in
06:10 28.8 °F 18.9 °F 23.51 in SSE 3.2 mph -999.0 mph 66% 0.00 in
06:25 27.9 °F 16.9 °F 23.51 in Calm   -999.0 mph 63% 0.00 in
06:40 27.7 °F 17.1 °F 23.50 in Calm   -999.0 mph 64% 0.00 in
06:55 27.7 °F 17.5 °F 23.51 in Calm   -999.0 mph 65% 0.00 in
07:11 27.5 °F 17.3 °F 23.51 in Calm   -999.0 mph 65% 0.00 in
07:26 27.3 °F 18.5 °F 23.51 in Calm   -999.0 mph 69% 0.00 in
07:41 27.7 °F 20.8 °F 23.51 in Calm   -999.0 mph 75% 0.00 in
07:56 29.7 °F 18.6 °F 23.51 in Calm   -999.0 mph 63% 0.00 in
08:12 32.4 °F 16.3 °F 23.50 in Calm   -999.0 mph 51% 0.00 in
08:27 34.2 °F 17.5 °F 23.50 in Calm   -999.0 mph 50% 0.00 in
08:42 36.5 °F 17.2 °F 23.50 in Calm   -999.0 mph 45% 0.00 in
08:57 40.5 °F 18.1 °F 23.49 in Calm   -999.0 mph 40% 0.00 in
09:12 42.1 °F 17.7 °F 23.49 in North 2.2 mph -999.0 mph 37% 0.00 in
09:28 43.2 °F 16.7 °F 23.49 in NW 4.2 mph -999.0 mph 34% 0.00 in
09:43 44.6 °F 16.5 °F 23.48 in Calm   -999.0 mph 32% 0.00 in
09:58 46.9 °F 17.1 °F 23.48 in ESE 2.2 mph -999.0 mph 30% 0.00 in
10:14 47.7 °F 18.5 °F 23.48 in NNW 6.8 mph -999.0 mph 31% 0.00 in
10:33 48.0 °F 17.2 °F 23.49 in SSE 3.7 mph -999.0 mph 29% 0.00 in
10:50 46.8 °F 20.6 °F 23.48 in ENE 5.8 mph -999.0 mph 35% 0.00 in
11:06 48.0 °F 20.9 °F 23.48 in NNE 4.7 mph -999.0 mph 34% 0.00 in
11:21 46.9 °F 19.3 °F 23.48 in NNW 3.2 mph -999.0 mph 33% 0.00 in
11:38 50.4 °F 20.1 °F 23.47 in WNW 5.3 mph -999.0 mph 30% 0.00 in
11:55 50.2 °F 22.2 °F 23.47 in NNW 5.3 mph -999.0 mph 33% 0.00 in
12:12 52.5 °F 21.9 °F 23.47 in NW 7.3 mph -999.0 mph 30% 0.00 in
12:29 52.3 °F 22.5 °F 23.45 in NNW 5.8 mph -999.0 mph 31% 0.00 in
12:44 52.3 °F 22.5 °F 23.45 in NW 7.8 mph -999.0 mph 31% 0.00 in
13:01 53.4 °F 21.1 °F 23.44 in NNW 3.2 mph -999.0 mph 28% 0.00 in
13:16 52.7 °F 22.1 °F 23.43 in WNW 6.3 mph -999.0 mph 30% 0.00 in
13:31 51.6 °F 24.1 °F 23.43 in NNW 7.3 mph -999.0 mph 34% 0.00 in
13:47 50.0 °F 25.4 °F 23.42 in North 1.7 mph -999.0 mph 38% 0.00 in
14:02 49.6 °F 28.6 °F 23.42 in NE 2.7 mph -999.0 mph 44% 0.00 in
14:17 48.9 °F 28.5 °F 23.41 in WNW 7.3 mph -999.0 mph 45% 0.00 in
14:32 49.1 °F 27.6 °F 23.40 in NNE 1.7 mph -999.0 mph 43% 0.00 in
14:47 48.2 °F 26.2 °F 23.40 in Calm   -999.0 mph 42% 0.00 in
15:03 48.2 °F 27.3 °F 23.40 in West 6.3 mph -999.0 mph 44% 0.00 in
15:18 48.4 °F 26.3 °F 23.39 in NNW 2.2 mph -999.0 mph 42% 0.00 in
15:33 46.6 °F 25.8 °F 23.39 in NNW 3.2 mph -999.0 mph 44% 0.00 in
15:48 46.4 °F 26.2 °F 23.38 in NW 2.7 mph -999.0 mph 45% 0.00 in
16:03 45.9 °F 26.3 °F 23.37 in Calm   -999.0 mph 46% 0.00 in
16:19 46.2 °F 27.1 °F 23.36 in NW 3.7 mph -999.0 mph 47% 0.00 in
16:34 46.0 °F 26.9 °F 23.35 in Calm   -999.0 mph 47% 0.00 in
16:49 46.4 °F 27.8 °F 23.35 in SSE 1.1 mph -999.0 mph 48% 0.00 in
17:04 45.3 °F 27.7 °F 23.34 in Calm   -999.0 mph 50% 0.00 in
17:20 44.2 °F 27.2 °F 23.34 in NNW 1.7 mph -999.0 mph 51% 0.00 in
17:35 43.7 °F 29.0 °F 23.34 in Calm   -999.0 mph 56% 0.00 in
17:50 43.0 °F 28.8 °F 23.32 in Calm   -999.0 mph 57% 0.00 in
18:05 42.4 °F 31.5 °F 23.32 in Calm   -999.0 mph 65% 0.00 in
18:21 41.5 °F 32.1 °F 23.31 in Calm   -999.0 mph 69% 0.00 in
18:36 41.4 °F 31.6 °F 23.31 in Calm   -999.0 mph 68% 0.00 in
18:51 40.5 °F 31.1 °F 23.30 in ESE 5.8 mph -999.0 mph 69% 0.00 in
19:07 39.9 °F 30.9 °F 23.30 in Calm   -999.0 mph 70% 0.00 in
19:22 38.5 °F 29.9 °F 23.30 in Calm   -999.0 mph 71% 0.00 in
19:37 37.8 °F 29.2 °F 23.30 in Calm   -999.0 mph 71% 0.00 in
20:07 36.1 °F 26.9 °F 23.29 in SSE 3.7 mph -999.0 mph 69% 0.00 in
20:23 36.0 °F 27.2 °F 23.29 in NE 4.7 mph -999.0 mph 70% 0.00 in
20:38 36.1 °F 27.6 °F 23.29 in NW 1.1 mph -999.0 mph 71% 0.00 in
20:53 36.0 °F 27.2 °F 23.29 in Calm   -999.0 mph 70% 0.00 in
21:08 35.1 °F 26.3 °F 23.30 in Calm   -999.0 mph 70% 0.00 in
21:23 34.9 °F 26.5 °F 23.30 in WNW 2.2 mph -999.0 mph 71% 0.00 in
21:39 34.7 °F 26.3 °F 23.30 in WNW 1.7 mph -999.0 mph 71% 0.00 in
21:54 34.3 °F 26.5 °F 23.29 in Calm   -999.0 mph 73% 0.00 in
22:09 34.5 °F 26.4 °F 23.29 in Calm   -999.0 mph 72% 0.00 in
22:24 34.7 °F 26.9 °F 23.28 in Calm   -999.0 mph 73% 0.00 in
22:40 35.1 °F 27.3 °F 23.27 in Calm   -999.0 mph 73% 0.00 in
22:55 34.3 °F 25.9 °F 23.27 in Calm   -999.0 mph 71% 0.00 in
23:10 34.3 °F 26.5 °F 23.27 in Calm   -999.0 mph 73% 0.00 in
23:25 34.3 °F 27.5 °F 23.27 in West 3.2 mph -999.0 mph 76% 0.00 in
23:41 34.5 °F 28.0 °F 23.26 in ESE 4.2 mph -999.0 mph 77% 0.00 in
23:56 34.5 °F 28.7 °F 23.26 in WNW 7.3 mph -999.0 mph 79% 0.00 in
Big Bear CA Weather